createdAt,value
2022-08-17T00:00:34.883Z,18.12
2022-08-17T00:03:09.986Z,18.11
2022-08-17T00:05:42.347Z,18.04
2022-08-17T00:08:10.861Z,18.03
2022-08-17T00:10:38.730Z,17.98
2022-08-17T00:13:08.523Z,18.00
2022-08-17T00:15:36.480Z,17.98
2022-08-17T00:18:04.741Z,18.00
2022-08-17T00:20:54.963Z,18.02
2022-08-17T00:23:23.569Z,18.07
2022-08-17T00:25:51.591Z,18.14
2022-08-17T00:28:20.932Z,18.28
2022-08-17T00:30:53.388Z,18.36
2022-08-17T00:33:24.079Z,18.43
2022-08-17T00:35:53.994Z,18.41
2022-08-17T00:38:22.879Z,18.50
2022-08-17T00:40:55.934Z,18.52
2022-08-17T00:43:32.154Z,18.50
2022-08-17T00:46:01.366Z,18.48
2022-08-17T00:48:30.873Z,18.40
2022-08-17T00:51:09.037Z,18.30
2022-08-17T00:53:41.827Z,18.25
2022-08-17T00:56:13.674Z,18.23
2022-08-17T00:58:42.159Z,18.08
2022-08-17T01:01:12.348Z,18.14
2022-08-17T01:03:49.734Z,18.14
2022-08-17T01:06:19.285Z,18.09
2022-08-17T01:08:47.325Z,17.99
2022-08-17T01:11:15.400Z,17.88
2022-08-17T01:13:44.746Z,17.85
2022-08-17T01:16:16.961Z,17.86
2022-08-17T01:18:47.626Z,17.82
2022-08-17T01:21:25.590Z,17.59
2022-08-17T01:23:55.005Z,17.59
2022-08-17T01:26:23.622Z,17.67
2022-08-17T01:28:54.242Z,17.66
2022-08-17T01:31:25.049Z,17.61
2022-08-17T01:33:52.884Z,17.57
2022-08-17T01:36:20.768Z,17.54
2022-08-17T01:38:48.785Z,17.54
2022-08-17T01:41:18.220Z,17.51
2022-08-17T01:43:51.894Z,17.50
2022-08-17T01:46:25.961Z,17.56
2022-08-17T01:48:54.529Z,17.57
2022-08-17T01:51:22.705Z,17.57
2022-08-17T01:53:53.698Z,17.53
2022-08-17T01:56:25.318Z,17.42
2022-08-17T01:58:54.163Z,17.39
2022-08-17T02:01:24.593Z,17.39
2022-08-17T02:03:53.255Z,17.27
2022-08-17T02:06:28.940Z,17.12
2022-08-17T02:09:02.291Z,17.14
2022-08-17T02:11:35.243Z,17.09
2022-08-17T02:14:05.277Z,16.93
2022-08-17T02:16:37.889Z,16.96
2022-08-17T02:19:07.653Z,17.04
2022-08-17T02:21:35.957Z,17.11
2022-08-17T02:24:04.465Z,17.13
2022-08-17T02:26:33.699Z,17.22
2022-08-17T02:29:01.939Z,17.28
2022-08-17T02:31:30.019Z,17.28
2022-08-17T02:34:03.445Z,17.32
2022-08-17T02:36:32.520Z,17.31
2022-08-17T02:39:01.484Z,17.33
2022-08-17T02:41:29.408Z,17.36
2022-08-17T02:43:58.681Z,17.36
2022-08-17T02:46:27.110Z,17.33
2022-08-17T02:48:54.825Z,17.33
2022-08-17T02:51:22.952Z,17.38
2022-08-17T02:53:50.778Z,17.29
2022-08-17T02:56:18.549Z,17.24
2022-08-17T02:58:46.415Z,17.13
2022-08-17T03:01:15.939Z,17.10
2022-08-17T03:03:44.063Z,17.06
2022-08-17T03:06:12.336Z,17.10
2022-08-17T03:08:40.586Z,17.16
2022-08-17T03:11:08.489Z,17.08
2022-08-17T03:13:36.502Z,17.07
2022-08-17T03:16:04.734Z,16.98
2022-08-17T03:18:34.034Z,16.93
2022-08-17T03:21:04.300Z,16.91
2022-08-17T03:23:33.714Z,16.87
2022-08-17T03:26:01.986Z,16.87
2022-08-17T03:28:30.135Z,16.86
2022-08-17T03:30:58.011Z,16.85
2022-08-17T03:33:25.867Z,16.89
2022-08-17T03:35:55.084Z,16.98
2022-08-17T03:38:23.196Z,17.05
2022-08-17T03:40:56.290Z,17.14
2022-08-17T03:43:29.297Z,17.21
2022-08-17T03:46:28.233Z,17.24
2022-08-17T03:49:20.634Z,17.25
2022-08-17T03:52:07.397Z,17.28
2022-08-17T03:54:53.170Z,17.29
2022-08-17T03:57:21.222Z,17.24
2022-08-17T03:59:49.456Z,17.25
2022-08-17T04:02:20.702Z,17.25
2022-08-17T04:04:50.794Z,17.20
2022-08-17T04:07:22.779Z,17.19
2022-08-17T04:09:50.579Z,17.20
2022-08-17T04:12:26.014Z,17.28
2022-08-17T04:14:55.253Z,17.42
2022-08-17T04:17:26.320Z,17.52
2022-08-17T04:19:55.418Z,17.60
2022-08-17T04:22:33.005Z,17.69
2022-08-17T04:25:08.441Z,17.77
2022-08-17T04:27:36.687Z,17.78
2022-08-17T04:30:07.874Z,17.79
2022-08-17T04:33:04.150Z,17.81
2022-08-17T04:35:37.136Z,17.83
2022-08-17T04:38:07.149Z,17.82
2022-08-17T04:40:52.461Z,17.89
2022-08-17T04:43:22.578Z,17.93
2022-08-17T04:45:55.406Z,17.94
2022-08-17T04:48:29.589Z,17.97
2022-08-17T04:51:10.351Z,18.02
2022-08-17T04:53:41.221Z,18.03
2022-08-17T04:56:11.684Z,18.08
2022-08-17T04:58:46.278Z,18.11
2022-08-17T05:01:14.871Z,18.25
2022-08-17T05:03:42.947Z,18.39
2022-08-17T05:06:11.760Z,18.47
2022-08-17T05:08:40.998Z,18.55
2022-08-17T05:11:09.353Z,18.63
2022-08-17T05:13:37.283Z,18.63
2022-08-17T05:16:06.190Z,18.74
2022-08-17T05:18:33.941Z,18.86
2022-08-17T05:21:03.820Z,18.99
2022-08-17T05:23:42.246Z,19.01
2022-08-17T05:26:21.382Z,19.16
2022-08-17T05:28:57.120Z,19.18
2022-08-17T05:31:28.863Z,19.22
2022-08-17T05:33:56.714Z,19.30
2022-08-17T05:36:41.640Z,19.43
2022-08-17T05:39:15.868Z,19.44
2022-08-17T05:41:47.773Z,19.59
2022-08-17T05:44:15.878Z,19.59
2022-08-17T05:46:49.058Z,19.64
2022-08-17T05:49:20.129Z,19.77
2022-08-17T05:52:19.956Z,19.89
2022-08-17T05:55:02.189Z,19.97
2022-08-17T05:57:43.359Z,20.02
2022-08-17T06:00:30.413Z,20.12
2022-08-17T06:03:11.835Z,20.16
2022-08-17T06:05:55.531Z,20.30
2022-08-17T06:08:32.266Z,20.39
2022-08-17T06:11:07.796Z,20.46
2022-08-17T06:13:54.677Z,20.49
2022-08-17T06:16:34.142Z,20.39
2022-08-17T06:19:06.021Z,20.41
2022-08-17T06:21:37.049Z,20.37
2022-08-17T06:24:09.021Z,20.41
2022-08-17T06:26:43.269Z,20.42
2022-08-17T06:29:22.333Z,20.46
2022-08-17T06:31:51.054Z,20.54
2022-08-17T06:34:21.668Z,20.49
2022-08-17T06:36:57.635Z,20.58
2022-08-17T06:39:41.428Z,20.70
2022-08-17T06:43:02.398Z,20.60
2022-08-17T06:45:18.998Z,20.68
2022-08-17T06:47:52.800Z,20.81
2022-08-17T06:50:29.727Z,20.85
2022-08-17T06:53:05.505Z,20.96
2022-08-17T06:55:44.121Z,21.15
2022-08-17T06:58:16.503Z,21.23
2022-08-17T07:00:48.830Z,21.33
2022-08-17T07:03:27.462Z,21.56
2022-08-17T07:06:00.123Z,21.73
2022-08-17T07:08:35.079Z,21.81
2022-08-17T07:11:07.781Z,21.98
2022-08-17T07:13:51.452Z,22.10
2022-08-17T07:16:27.417Z,22.26
2022-08-17T07:18:58.646Z,22.29
2022-08-17T07:21:45.951Z,22.11
2022-08-17T07:24:30.714Z,22.15
2022-08-17T07:27:12.056Z,22.20
2022-08-17T07:29:44.152Z,22.21
2022-08-17T07:32:18.490Z,22.30
2022-08-17T07:35:10.743Z,22.34
2022-08-17T07:37:40.881Z,22.18
2022-08-17T07:40:22.253Z,22.29
2022-08-17T07:43:06.501Z,22.37
2022-08-17T07:45:53.237Z,22.49
2022-08-17T07:48:27.350Z,22.68
2022-08-17T07:50:55.221Z,22.60
2022-08-17T07:53:25.701Z,22.58
2022-08-17T07:55:54.580Z,22.60
2022-08-17T07:58:24.604Z,22.72
2022-08-17T08:01:08.889Z,22.83
2022-08-17T08:03:43.893Z,23.05
2022-08-17T08:06:21.746Z,23.22
2022-08-17T08:08:54.728Z,23.22
2022-08-17T08:11:34.870Z,23.42
2022-08-17T08:14:18.946Z,23.50
2022-08-17T08:16:58.987Z,23.70
2022-08-17T08:19:29.602Z,23.70
2022-08-17T08:22:05.516Z,23.73
2022-08-17T08:24:57.907Z,23.67
2022-08-17T08:27:37.570Z,23.72
2022-08-17T08:30:10.156Z,23.78
2022-08-17T08:32:54.365Z,23.97
2022-08-17T08:35:32.472Z,24.17
2022-08-17T08:38:10.897Z,24.44
2022-08-17T08:40:57.059Z,24.57
2022-08-17T08:43:37.110Z,24.76
2022-08-17T08:46:13.369Z,24.99
2022-08-17T08:49:11.880Z,25.02
2022-08-17T08:51:51.641Z,25.09
2022-08-17T08:54:34.847Z,25.41
2022-08-17T08:57:26.782Z,25.52
2022-08-17T09:00:08.560Z,25.49
2022-08-17T09:02:55.169Z,25.75
2022-08-17T09:05:32.980Z,25.92
2022-08-17T09:08:12.570Z,26.18
2022-08-17T09:10:55.966Z,26.39
2022-08-17T09:13:31.263Z,26.09
2022-08-17T09:16:03.978Z,26.22
2022-08-17T09:19:00.418Z,26.13
2022-08-17T09:21:33.688Z,26.44
2022-08-17T09:24:12.754Z,26.33
2022-08-17T09:26:47.461Z,26.42
2022-08-17T09:29:17.894Z,26.65
2022-08-17T09:31:55.016Z,26.89
2022-08-17T09:34:33.082Z,26.96
2022-08-17T09:37:14.231Z,26.89
2022-08-17T09:39:52.388Z,26.92
2022-08-17T09:42:27.979Z,27.04
2022-08-17T09:45:03.798Z,27.12
2022-08-17T09:47:36.868Z,27.01
2022-08-17T09:50:11.516Z,27.10
2022-08-17T09:52:39.528Z,27.24
2022-08-17T09:55:09.287Z,27.46
2022-08-17T09:57:51.459Z,27.81
2022-08-17T10:00:26.341Z,27.72
2022-08-17T10:03:29.110Z,27.32
2022-08-17T10:06:06.479Z,27.62
2022-08-17T10:08:40.849Z,27.82
2022-08-17T10:11:22.521Z,27.83
2022-08-17T10:14:36.742Z,27.86
2022-08-17T10:17:04.087Z,28.24
2022-08-17T10:19:38.780Z,28.09
2022-08-17T10:22:35.415Z,28.60
2022-08-17T10:25:42.550Z,28.63
2022-08-17T10:28:24.695Z,28.62
2022-08-17T10:31:23.432Z,28.59
2022-08-17T10:33:59.798Z,28.56
2022-08-17T10:36:37.936Z,28.56
2022-08-17T10:39:22.679Z,28.67
2022-08-17T10:41:54.005Z,28.56
2022-08-17T10:44:38.828Z,28.89
2022-08-17T10:47:11.626Z,28.98
2022-08-17T10:49:47.723Z,29.40
2022-08-17T10:52:48.629Z,29.36
2022-08-17T10:55:20.325Z,29.03
2022-08-17T10:57:50.638Z,29.08
2022-08-17T11:01:08.944Z,29.31
2022-08-17T11:03:38.241Z,29.70
2022-08-17T11:06:17.852Z,29.61
2022-08-17T11:09:03.665Z,29.83
2022-08-17T11:11:54.231Z,30.07
2022-08-17T11:14:49.649Z,30.03
2022-08-17T11:17:32.401Z,29.89
2022-08-17T11:20:41.625Z,29.87
2022-08-17T11:23:37.373Z,30.23
2022-08-17T11:26:23.061Z,31.00
2022-08-17T11:28:54.349Z,31.18
2022-08-17T11:31:38.662Z,30.72
2022-08-17T11:34:15.093Z,30.84
2022-08-17T11:37:02.604Z,30.91
2022-08-17T11:40:09.016Z,30.57
2022-08-17T11:43:04.475Z,30.98
2022-08-17T11:45:53.971Z,31.63
2022-08-17T11:48:51.302Z,31.37
2022-08-17T11:51:37.144Z,31.36
2022-08-17T11:54:32.444Z,31.13
2022-08-17T11:57:22.296Z,31.38
2022-08-17T12:00:00.794Z,31.18
2022-08-17T12:02:47.371Z,31.99
2022-08-17T12:05:28.854Z,31.82
2022-08-17T12:08:08.603Z,31.82
2022-08-17T12:10:50.721Z,31.77
2022-08-17T12:13:19.802Z,32.13
2022-08-17T12:15:52.879Z,31.98
2022-08-17T12:18:23.321Z,31.54
2022-08-17T12:21:08.670Z,31.93
2022-08-17T12:23:44.129Z,31.25
2022-08-17T12:26:19.576Z,31.65
2022-08-17T12:28:50.148Z,31.76
2022-08-17T12:31:22.963Z,31.58
2022-08-17T12:33:53.199Z,31.68
2022-08-17T12:36:25.579Z,31.86
2022-08-17T12:38:59.420Z,31.49
2022-08-17T12:41:44.245Z,30.86
2022-08-17T12:44:16.063Z,31.69
2022-08-17T12:46:56.569Z,31.65
2022-08-17T12:49:29.565Z,31.93
2022-08-17T12:52:15.670Z,31.83
2022-08-17T12:54:50.777Z,31.88
2022-08-17T12:57:21.704Z,31.48
2022-08-17T12:59:55.109Z,32.19
2022-08-17T13:02:32.602Z,31.88
2022-08-17T13:05:02.473Z,32.10
2022-08-17T13:07:36.271Z,32.09
2022-08-17T13:10:05.821Z,32.33
2022-08-17T13:12:36.398Z,32.71
2022-08-17T13:15:04.846Z,32.19
2022-08-17T13:17:37.035Z,32.26
2022-08-17T13:20:06.960Z,32.13
2022-08-17T13:22:35.035Z,31.87
2022-08-17T13:25:08.424Z,31.28
2022-08-17T13:27:38.240Z,30.88
2022-08-17T13:30:11.839Z,30.84
2022-08-17T13:32:44.991Z,30.92
2022-08-17T13:35:39.724Z,30.69
2022-08-17T13:38:11.694Z,30.77
2022-08-17T13:40:42.239Z,30.61
2022-08-17T13:43:11.946Z,30.54
2022-08-17T13:45:53.460Z,30.07
2022-08-17T13:48:29.039Z,30.19
2022-08-17T13:51:20.983Z,29.96
2022-08-17T13:53:54.456Z,30.26
2022-08-17T13:56:36.964Z,29.96
2022-08-17T13:59:09.174Z,29.96
2022-08-17T14:01:40.343Z,30.08
2022-08-17T14:04:13.078Z,30.23
2022-08-17T14:06:53.302Z,30.34
2022-08-17T14:09:24.003Z,30.39
2022-08-17T14:11:52.761Z,30.09
2022-08-17T14:14:23.122Z,29.56
2022-08-17T14:16:51.635Z,29.53
2022-08-17T14:19:21.896Z,29.36
2022-08-17T14:21:50.172Z,29.21
2022-08-17T14:24:23.995Z,29.31
2022-08-17T14:26:53.018Z,29.38
2022-08-17T14:29:22.320Z,29.97
2022-08-17T14:31:54.264Z,30.34
2022-08-17T14:34:25.137Z,30.66
2022-08-17T14:36:53.728Z,30.93
2022-08-17T14:39:21.854Z,31.16
2022-08-17T14:41:50.834Z,31.46
2022-08-17T14:44:18.650Z,31.44
2022-08-17T14:46:47.922Z,31.38
2022-08-17T14:49:16.075Z,31.55
2022-08-17T14:51:45.140Z,31.65
2022-08-17T14:54:34.319Z,31.78
2022-08-17T14:57:22.171Z,32.25
2022-08-17T14:59:53.365Z,32.23
2022-08-17T15:02:29.672Z,32.08
2022-08-17T15:05:02.469Z,31.98
2022-08-17T15:07:32.132Z,32.27
2022-08-17T15:10:01.491Z,32.71
2022-08-17T15:12:34.718Z,32.92
2022-08-17T15:15:04.880Z,32.54
2022-08-17T15:17:43.992Z,32.58
2022-08-17T15:20:15.920Z,32.48
2022-08-17T15:22:46.348Z,32.41
2022-08-17T15:25:15.605Z,32.39
2022-08-17T15:27:43.984Z,32.42
2022-08-17T15:30:13.038Z,32.01
2022-08-17T15:32:50.605Z,32.29
2022-08-17T15:35:28.341Z,31.84
2022-08-17T15:38:08.346Z,32.02
2022-08-17T15:40:41.478Z,32.09
2022-08-17T15:43:11.576Z,32.48
2022-08-17T15:45:40.378Z,32.52
2022-08-17T15:48:08.903Z,32.64
2022-08-17T15:50:37.454Z,32.77
2022-08-17T15:53:06.611Z,32.43
2022-08-17T15:55:35.106Z,32.59
2022-08-17T15:58:03.858Z,32.31
2022-08-17T16:00:37.472Z,31.75
2022-08-17T16:03:58.130Z,31.40
2022-08-17T16:06:08.499Z,31.42
2022-08-17T16:08:43.486Z,31.23
2022-08-17T16:11:12.221Z,30.72
2022-08-17T16:13:40.618Z,30.42
2022-08-17T16:16:09.101Z,30.24
2022-08-17T16:18:37.523Z,30.32
2022-08-17T16:21:22.563Z,30.03
2022-08-17T16:23:54.311Z,29.66
2022-08-17T16:26:22.886Z,29.44
2022-08-17T16:28:51.308Z,29.29
2022-08-17T16:31:19.135Z,29.38
2022-08-17T16:34:15.460Z,29.36
2022-08-17T16:36:35.526Z,29.27
2022-08-17T16:39:05.123Z,28.94
2022-08-17T16:41:45.317Z,28.81
2022-08-17T16:44:15.483Z,28.74
2022-08-17T16:46:45.835Z,28.39
2022-08-17T16:49:24.410Z,28.27
2022-08-17T16:52:03.991Z,28.24
2022-08-17T16:54:35.394Z,27.95
2022-08-17T16:57:04.979Z,27.90
2022-08-17T16:59:41.138Z,27.77
2022-08-17T17:02:13.872Z,27.56
2022-08-17T17:04:48.009Z,27.49
2022-08-17T17:07:38.711Z,27.12
2022-08-17T17:10:10.905Z,26.90
2022-08-17T17:13:02.594Z,26.74
2022-08-17T17:15:40.321Z,26.59
2022-08-17T17:18:12.693Z,26.45
2022-08-17T17:20:47.645Z,26.43
2022-08-17T17:23:30.259Z,26.25
2022-08-17T17:26:10.910Z,26.11
2022-08-17T17:28:49.042Z,25.98
2022-08-17T17:31:20.371Z,25.90
2022-08-17T17:33:51.004Z,26.03
2022-08-17T17:36:25.428Z,25.92
2022-08-17T17:38:55.574Z,25.73
2022-08-17T17:41:31.495Z,25.70
2022-08-17T17:44:03.533Z,25.52
2022-08-17T17:46:37.753Z,25.42
2022-08-17T17:49:05.981Z,25.42
2022-08-17T17:51:54.808Z,25.34
2022-08-17T17:54:44.795Z,25.22
2022-08-17T17:57:21.236Z,25.16
2022-08-17T17:59:57.650Z,25.02
2022-08-17T18:02:52.018Z,24.77
2022-08-17T18:05:48.698Z,24.58
2022-08-17T18:08:39.451Z,24.63
2022-08-17T18:11:20.864Z,24.53
2022-08-17T18:14:06.032Z,24.51
2022-08-17T18:16:35.634Z,24.47
2022-08-17T18:19:03.578Z,24.47
2022-08-17T18:21:38.811Z,24.38
2022-08-17T18:24:10.558Z,24.42
2022-08-17T18:26:52.324Z,24.28
2022-08-17T18:29:34.278Z,24.24
2022-08-17T18:32:19.426Z,24.18
2022-08-17T18:34:49.569Z,24.10
2022-08-17T18:37:33.059Z,23.98
2022-08-17T18:40:24.337Z,23.90
2022-08-17T18:43:00.954Z,23.83
2022-08-17T18:45:35.806Z,23.80
2022-08-17T18:48:04.301Z,23.68
2022-08-17T18:50:39.516Z,23.57
2022-08-17T18:53:26.791Z,23.53
2022-08-17T18:56:31.202Z,23.49
2022-08-17T18:59:06.143Z,23.43
2022-08-17T19:01:53.347Z,23.39
2022-08-17T19:04:36.433Z,23.48
2022-08-17T19:07:27.262Z,23.45
2022-08-17T19:09:59.561Z,23.36
2022-08-17T19:12:37.996Z,23.37
2022-08-17T19:15:09.394Z,23.34
2022-08-17T19:17:44.148Z,23.28
2022-08-17T19:20:18.499Z,23.37
2022-08-17T19:23:06.293Z,23.24
2022-08-17T19:25:37.022Z,23.19
2022-08-17T19:28:21.543Z,23.08
2022-08-17T19:30:51.422Z,23.12
2022-08-17T19:33:20.975Z,23.15
2022-08-17T19:35:59.855Z,22.90
2022-08-17T19:38:39.826Z,23.03
2022-08-17T19:41:12.903Z,22.92
2022-08-17T19:43:57.034Z,22.76
2022-08-17T19:46:35.673Z,22.67
2022-08-17T19:49:12.593Z,22.57
2022-08-17T19:51:52.030Z,22.57
2022-08-17T19:54:26.935Z,22.67
2022-08-17T19:57:03.194Z,22.75
2022-08-17T19:59:48.830Z,22.81
2022-08-17T20:02:29.021Z,22.72
2022-08-17T20:05:02.502Z,22.57
2022-08-17T20:07:42.171Z,22.45
2022-08-17T20:10:13.485Z,22.35
2022-08-17T20:12:45.002Z,22.28
2022-08-17T20:15:18.002Z,22.31
2022-08-17T20:17:47.887Z,22.37
2022-08-17T20:20:29.730Z,22.32
2022-08-17T20:23:03.681Z,22.36
2022-08-17T20:25:39.227Z,22.35
2022-08-17T20:28:23.714Z,22.26
2022-08-17T20:30:52.951Z,22.24
2022-08-17T20:33:27.935Z,22.19
2022-08-17T20:36:15.941Z,22.09
2022-08-17T20:38:47.059Z,21.83
2022-08-17T20:41:16.807Z,21.62
2022-08-17T20:43:51.322Z,21.63
2022-08-17T20:46:31.365Z,21.74
2022-08-17T20:49:14.725Z,21.64
2022-08-17T20:52:01.647Z,21.58
2022-08-17T20:54:44.222Z,21.61
2022-08-17T20:57:45.510Z,21.59
2022-08-17T21:00:34.263Z,21.45
2022-08-17T21:03:51.177Z,21.40
2022-08-17T21:06:23.318Z,21.14
2022-08-17T21:08:54.302Z,21.16
2022-08-17T21:11:57.335Z,21.09
2022-08-17T21:14:41.939Z,21.02
2022-08-17T21:17:26.342Z,21.00
2022-08-17T21:20:17.119Z,20.93
2022-08-17T21:22:59.061Z,20.89
2022-08-17T21:25:49.055Z,20.82
2022-08-17T21:29:01.361Z,20.82
2022-08-17T21:31:35.773Z,20.89
2022-08-17T21:34:33.396Z,20.78
2022-08-17T21:37:29.687Z,20.70
2022-08-17T21:40:01.119Z,20.59
2022-08-17T21:42:32.471Z,20.49
2022-08-17T21:45:10.072Z,20.45
2022-08-17T21:47:45.426Z,20.42
2022-08-17T21:50:19.933Z,20.49
2022-08-17T21:52:49.963Z,20.45
2022-08-17T21:55:28.196Z,20.36
2022-08-17T21:58:13.848Z,20.29
2022-08-17T22:00:44.980Z,20.18
2022-08-17T22:03:24.564Z,20.12
2022-08-17T22:05:52.497Z,20.08
2022-08-17T22:08:23.578Z,20.00
2022-08-17T22:11:31.589Z,19.97
2022-08-17T22:14:06.000Z,19.71
2022-08-17T22:16:34.801Z,19.73
2022-08-17T22:19:06.490Z,19.79
2022-08-17T22:21:34.255Z,19.71
2022-08-17T22:24:05.605Z,19.68
2022-08-17T22:27:00.478Z,19.58
2022-08-17T22:29:57.362Z,19.57
2022-08-17T22:32:36.126Z,19.54
2022-08-17T22:35:19.571Z,19.47
2022-08-17T22:37:47.596Z,19.48
2022-08-17T22:40:28.093Z,19.59
2022-08-17T22:42:57.166Z,19.63
2022-08-17T22:45:28.355Z,19.48
2022-08-17T22:47:58.649Z,19.39
2022-08-17T22:50:30.114Z,19.50
2022-08-17T22:53:18.088Z,19.48
2022-08-17T22:56:08.843Z,19.48
2022-08-17T22:59:02.229Z,19.38
2022-08-17T23:01:35.370Z,19.30
2022-08-17T23:04:06.587Z,19.34
2022-08-17T23:06:36.665Z,19.26
2022-08-17T23:09:06.157Z,19.24
2022-08-17T23:11:48.771Z,19.25
2022-08-17T23:14:19.145Z,19.33
2022-08-17T23:16:49.712Z,19.26
2022-08-17T23:19:20.911Z,19.31
2022-08-17T23:21:55.161Z,19.30
2022-08-17T23:24:25.307Z,19.22
2022-08-17T23:26:54.173Z,19.24
2022-08-17T23:29:22.494Z,19.17
2022-08-17T23:31:52.438Z,19.20
2022-08-17T23:34:20.794Z,19.05
2022-08-17T23:36:52.649Z,19.05
2022-08-17T23:39:24.526Z,19.09
2022-08-17T23:41:56.701Z,19.14
2022-08-17T23:44:24.799Z,19.07
2022-08-17T23:46:54.685Z,19.08
2022-08-17T23:49:24.333Z,19.02
2022-08-17T23:51:53.573Z,18.93
2022-08-17T23:54:24.990Z,18.84
2022-08-17T23:56:53.080Z,18.83
2022-08-17T23:59:23.182Z,18.78
